createdAt,value
2018-11-03T00:01:42.980Z,3.00
2018-11-03T00:04:11.140Z,3.03
2018-11-03T00:06:39.276Z,3.83
2018-11-03T00:09:10.143Z,3.47
2018-11-03T00:11:38.639Z,3.93
2018-11-03T00:14:07.236Z,3.37
2018-11-03T00:16:35.609Z,3.87
2018-11-03T00:19:04.251Z,4.30
2018-11-03T00:21:32.349Z,4.20
2018-11-03T00:24:00.576Z,4.10
2018-11-03T00:26:29.127Z,4.50
2018-11-03T00:28:57.283Z,4.50
2018-11-03T00:31:32.041Z,4.53
2018-11-03T00:34:00.199Z,4.60
2018-11-03T00:36:28.352Z,4.03
2018-11-03T00:38:56.454Z,4.00
2018-11-03T00:41:24.532Z,3.47
2018-11-03T00:43:52.794Z,4.00
2018-11-03T00:46:20.904Z,3.60
2018-11-03T00:48:49.190Z,3.30
2018-11-03T00:51:17.296Z,3.70
2018-11-03T00:53:45.419Z,3.50
2018-11-03T00:56:13.745Z,3.97
2018-11-03T00:58:41.900Z,4.40
2018-11-03T01:01:10.238Z,3.90
2018-11-03T01:03:44.902Z,4.00
2018-11-03T01:06:12.984Z,3.60
2018-11-03T01:08:41.121Z,3.37
2018-11-03T01:11:09.560Z,4.07
2018-11-03T01:13:37.708Z,3.90
2018-11-03T01:16:06.361Z,3.73
2018-11-03T01:18:34.535Z,4.57
2018-11-03T01:21:02.674Z,4.70
2018-11-03T01:23:30.805Z,3.80
2018-11-03T01:25:58.902Z,3.50
2018-11-03T01:28:27.049Z,4.07
2018-11-03T01:30:55.278Z,4.93
2018-11-03T01:33:23.447Z,4.57
2018-11-03T01:35:51.600Z,4.77
2018-11-03T01:38:19.732Z,4.27
2018-11-03T01:40:47.816Z,4.70
2018-11-03T01:43:15.913Z,4.40
2018-11-03T01:45:44.101Z,5.33
2018-11-03T01:48:12.242Z,4.63
2018-11-03T01:50:40.337Z,5.50
2018-11-03T01:53:08.400Z,4.67
2018-11-03T01:55:36.491Z,5.23
2018-11-03T01:58:04.734Z,4.93
2018-11-03T02:00:32.840Z,5.47
2018-11-03T02:03:00.872Z,5.03
2018-11-03T02:05:28.949Z,5.40
2018-11-03T02:07:57.001Z,5.93
2018-11-03T02:10:25.136Z,6.10
2018-11-03T02:12:53.240Z,5.27
2018-11-03T02:15:21.315Z,5.90
2018-11-03T02:17:49.603Z,5.30
2018-11-03T02:20:17.729Z,4.85
2018-11-03T02:22:45.789Z,5.40
2018-11-03T02:25:13.836Z,5.20
2018-11-03T02:27:41.989Z,6.10
2018-11-03T02:30:11.097Z,5.72
2018-11-03T02:32:39.324Z,5.60
2018-11-03T02:35:08.854Z,6.45
2018-11-03T02:37:37.512Z,5.30
2018-11-03T02:40:07.574Z,6.08
2018-11-03T02:42:35.679Z,5.95
2018-11-03T02:45:04.949Z,5.60
2018-11-03T02:47:33.139Z,7.00
2018-11-03T02:50:01.286Z,5.97
2018-11-03T02:52:29.485Z,6.70
2018-11-03T02:55:04.394Z,6.60
2018-11-03T02:57:32.502Z,6.78
2018-11-03T03:00:00.552Z,6.92
2018-11-03T03:02:28.749Z,6.90
2018-11-03T03:04:57.016Z,7.55
2018-11-03T03:07:25.136Z,8.05
2018-11-03T03:09:53.207Z,7.92
2018-11-03T03:12:21.326Z,8.48
2018-11-03T03:14:49.399Z,8.93
2018-11-03T03:17:17.501Z,8.20
2018-11-03T03:19:45.565Z,8.85
2018-11-03T03:22:13.593Z,9.13
2018-11-03T03:24:41.716Z,9.00
2018-11-03T03:27:09.884Z,8.65
2018-11-03T03:29:38.123Z,8.65
2018-11-03T03:32:06.497Z,8.48
2018-11-03T03:34:34.913Z,9.75
2018-11-03T03:37:03.066Z,9.80
2018-11-03T03:39:31.187Z,8.50
2018-11-03T03:41:59.326Z,8.65
2018-11-03T03:44:27.415Z,8.93
2018-11-03T03:46:55.427Z,9.18
2018-11-03T03:49:23.613Z,8.65
2018-11-03T03:51:51.748Z,8.83
2018-11-03T03:54:19.866Z,7.83
2018-11-03T03:56:47.995Z,8.28
2018-11-03T03:59:16.045Z,8.05
2018-11-03T04:01:44.091Z,7.55
2018-11-03T04:04:12.177Z,6.20
2018-11-03T04:06:40.253Z,7.30
2018-11-03T04:09:08.871Z,7.22
2018-11-03T04:11:36.975Z,7.00
2018-11-03T04:14:05.113Z,7.50
2018-11-03T04:16:33.208Z,7.05
2018-11-03T04:19:01.277Z,7.80
2018-11-03T04:21:31.130Z,8.28
2018-11-03T04:23:59.217Z,8.05
2018-11-03T04:26:28.528Z,8.03
2018-11-03T04:28:56.992Z,7.97
2018-11-03T04:31:25.330Z,8.70
2018-11-03T04:33:53.366Z,7.95
2018-11-03T04:36:21.446Z,8.25
2018-11-03T04:38:49.549Z,9.23
2018-11-03T04:41:17.583Z,9.40
2018-11-03T04:43:45.590Z,9.80
2018-11-03T04:46:13.635Z,9.18
2018-11-03T04:48:41.607Z,10.58
2018-11-03T04:51:09.722Z,9.20
2018-11-03T04:53:37.779Z,9.70
2018-11-03T04:56:05.982Z,9.58
2018-11-03T04:58:34.027Z,9.93
2018-11-03T05:01:02.050Z,9.58
2018-11-03T05:03:30.111Z,9.90
2018-11-03T05:05:58.179Z,9.80
2018-11-03T05:08:26.266Z,11.08
2018-11-03T05:10:54.294Z,10.03
2018-11-03T05:13:22.525Z,11.35
2018-11-03T05:15:50.589Z,12.00
2018-11-03T05:18:18.641Z,11.18
2018-11-03T05:20:46.664Z,11.60
2018-11-03T05:23:14.688Z,11.15
2018-11-03T05:25:42.814Z,11.43
2018-11-03T05:28:10.875Z,11.90
2018-11-03T05:30:39.052Z,10.40
2018-11-03T05:33:07.125Z,11.65
2018-11-03T05:35:35.243Z,10.38
2018-11-03T05:38:03.393Z,10.28
2018-11-03T05:40:31.470Z,11.22
2018-11-03T05:42:59.514Z,10.70
2018-11-03T05:45:27.660Z,12.03
2018-11-03T05:47:55.736Z,10.53
2018-11-03T05:50:23.824Z,10.58
2018-11-03T05:52:51.980Z,11.60
2018-11-03T05:55:20.001Z,11.18
2018-11-03T05:57:48.076Z,12.40
2018-11-03T06:00:16.323Z,12.37
2018-11-03T06:02:44.473Z,12.85
2018-11-03T06:05:12.658Z,12.28
2018-11-03T06:07:40.797Z,14.83
2018-11-03T06:10:09.151Z,14.58
2018-11-03T06:12:37.431Z,12.28
2018-11-03T06:15:06.327Z,13.98
2018-11-03T06:17:34.425Z,14.18
2018-11-03T06:20:02.469Z,15.70
2018-11-03T06:22:30.636Z,14.38
2018-11-03T06:24:58.681Z,14.73
2018-11-03T06:27:26.791Z,13.43
2018-11-03T06:29:54.895Z,14.23
2018-11-03T06:32:22.944Z,14.30
2018-11-03T06:34:51.063Z,13.95
2018-11-03T06:37:19.139Z,15.15
2018-11-03T06:39:47.315Z,14.50
2018-11-03T06:42:15.548Z,14.35
2018-11-03T06:44:43.713Z,16.45
2018-11-03T06:47:11.821Z,15.60
2018-11-03T06:49:39.981Z,14.83
2018-11-03T06:52:08.279Z,13.98
2018-11-03T06:54:36.291Z,13.72
2018-11-03T06:57:04.614Z,13.48
2018-11-03T06:59:32.689Z,13.65
2018-11-03T07:02:00.801Z,14.87
2018-11-03T07:04:28.969Z,13.62
2018-11-03T07:06:57.044Z,14.95
2018-11-03T07:09:25.245Z,14.30
2018-11-03T07:11:53.343Z,13.75
2018-11-03T07:14:21.453Z,13.68
2018-11-03T07:16:49.522Z,13.83
2018-11-03T07:19:17.576Z,13.78
2018-11-03T07:21:45.931Z,13.18
2018-11-03T07:24:14.029Z,13.90
2018-11-03T07:26:43.824Z,12.00
2018-11-03T07:29:12.000Z,13.18
2018-11-03T07:31:40.208Z,14.10
2018-11-03T07:34:08.332Z,13.30
2018-11-03T07:36:36.531Z,13.90
2018-11-03T07:39:06.888Z,12.65
2018-11-03T07:41:35.178Z,12.70
2018-11-03T07:44:06.732Z,12.37
2018-11-03T07:46:34.925Z,12.90
2018-11-03T07:49:03.157Z,13.45
2018-11-03T07:51:31.278Z,15.08
2018-11-03T07:53:59.460Z,13.55
2018-11-03T07:56:27.672Z,13.88
2018-11-03T07:58:55.815Z,13.68
2018-11-03T08:01:24.096Z,13.75
2018-11-03T08:03:52.361Z,12.37
2018-11-03T08:06:20.512Z,13.30
2018-11-03T08:08:48.780Z,13.45
2018-11-03T08:11:16.896Z,12.65
2018-11-03T08:13:45.097Z,14.30
2018-11-03T08:16:13.225Z,14.33
2018-11-03T08:18:41.448Z,13.30
2018-11-03T08:21:09.617Z,13.48
2018-11-03T08:23:37.810Z,13.62
2018-11-03T08:26:06.011Z,12.90
2018-11-03T08:28:34.205Z,12.95
2018-11-03T08:31:02.418Z,13.62
2018-11-03T08:33:30.726Z,12.85
2018-11-03T08:35:58.961Z,14.47
2018-11-03T08:38:27.152Z,12.90
2018-11-03T08:40:55.419Z,13.70
2018-11-03T08:43:23.600Z,13.93
2018-11-03T08:45:51.699Z,12.58
2018-11-03T08:48:19.969Z,13.60
2018-11-03T08:50:48.254Z,13.95
2018-11-03T08:53:16.523Z,12.70
2018-11-03T08:55:44.672Z,14.55
2018-11-03T08:58:12.823Z,13.58
2018-11-03T09:00:40.970Z,15.28
2018-11-03T09:03:09.194Z,14.50
2018-11-03T09:05:37.395Z,13.38
2018-11-03T09:08:05.904Z,14.40
2018-11-03T09:10:34.411Z,15.60
2018-11-03T09:13:02.566Z,14.65
2018-11-03T09:15:30.774Z,13.65
2018-11-03T09:18:02.235Z,14.80
2018-11-03T09:20:30.459Z,15.50
2018-11-03T09:22:58.857Z,16.45
2018-11-03T09:25:27.084Z,13.65
2018-11-03T09:27:55.433Z,13.90
2018-11-03T09:30:23.602Z,13.10
2018-11-03T09:32:51.851Z,14.15
2018-11-03T09:35:20.052Z,13.50
2018-11-03T09:37:48.378Z,13.48
2018-11-03T09:40:17.331Z,13.90
2018-11-03T09:42:47.062Z,14.30
2018-11-03T09:45:15.409Z,14.47
2018-11-03T09:47:43.971Z,14.03
2018-11-03T09:50:13.739Z,14.05
2018-11-03T09:52:42.308Z,14.83
2018-11-03T09:55:13.663Z,14.73
2018-11-03T09:57:42.252Z,15.85
2018-11-03T10:00:18.034Z,12.78
2018-11-03T10:02:46.390Z,14.40
2018-11-03T10:05:15.034Z,13.40
2018-11-03T10:07:43.376Z,14.37
2018-11-03T10:10:17.416Z,15.73
2018-11-03T10:12:45.832Z,15.35
2018-11-03T10:15:15.303Z,13.97
2018-11-03T10:17:43.979Z,14.43
2018-11-03T10:20:12.148Z,14.83
2018-11-03T10:22:40.503Z,13.47
2018-11-03T10:25:14.292Z,14.00
2018-11-03T10:27:43.234Z,15.70
2018-11-03T10:30:13.041Z,14.90
2018-11-03T10:32:41.629Z,14.97
2018-11-03T10:35:10.958Z,15.58
2018-11-03T10:37:39.390Z,14.90
2018-11-03T10:40:13.932Z,13.60
2018-11-03T10:42:42.501Z,15.50
2018-11-03T10:45:12.135Z,13.90
2018-11-03T10:47:40.658Z,14.47
2018-11-03T10:50:11.619Z,14.90
2018-11-03T10:52:40.799Z,14.90
2018-11-03T10:55:10.342Z,15.50
2018-11-03T10:57:38.837Z,15.63
2018-11-03T11:00:15.155Z,14.40
2018-11-03T11:02:49.079Z,14.73
2018-11-03T11:06:24.684Z,15.20
2018-11-03T11:08:58.371Z,14.50
2018-11-03T11:11:32.456Z,14.53
2018-11-03T11:14:00.668Z,12.83
2018-11-03T11:16:29.064Z,13.80
2018-11-03T11:18:57.278Z,16.47
2018-11-03T11:21:25.500Z,14.77
2018-11-03T11:23:54.190Z,14.57
2018-11-03T11:26:22.436Z,15.53
2018-11-03T11:28:50.962Z,15.00
2018-11-03T11:31:19.406Z,13.43
2018-11-03T11:33:47.611Z,14.03
2018-11-03T11:36:15.876Z,13.80
2018-11-03T11:38:44.078Z,14.47
2018-11-03T11:41:12.303Z,16.37
2018-11-03T11:43:40.467Z,14.77
2018-11-03T11:46:08.705Z,15.00
2018-11-03T11:48:36.845Z,14.40
2018-11-03T11:51:05.272Z,13.77
2018-11-03T11:53:33.491Z,14.03
2018-11-03T11:56:01.648Z,14.40
2018-11-03T11:58:29.908Z,13.93
2018-11-03T12:00:58.402Z,15.63
2018-11-03T12:03:26.537Z,16.23
2018-11-03T12:05:54.662Z,14.23
2018-11-03T12:08:23.097Z,13.97
2018-11-03T12:10:51.253Z,14.87
2018-11-03T12:13:19.496Z,13.83
2018-11-03T12:15:47.763Z,14.50
2018-11-03T12:18:15.955Z,15.07
2018-11-03T12:20:44.130Z,13.90
2018-11-03T12:23:12.387Z,14.50
2018-11-03T12:25:40.631Z,13.93
2018-11-03T12:28:08.893Z,13.03
2018-11-03T12:30:37.176Z,13.13
2018-11-03T12:33:05.644Z,13.60
2018-11-03T12:35:33.926Z,12.73
2018-11-03T12:38:02.055Z,13.17
2018-11-03T12:40:30.214Z,12.80
2018-11-03T12:42:58.498Z,13.50
2018-11-03T12:45:26.692Z,12.70
2018-11-03T12:47:54.867Z,12.23
2018-11-03T12:50:23.064Z,12.67
2018-11-03T12:52:51.231Z,12.33
2018-11-03T12:55:19.393Z,13.37
2018-11-03T12:57:47.550Z,12.23
2018-11-03T13:00:16.178Z,12.77
2018-11-03T13:02:45.106Z,11.63
2018-11-03T13:05:13.561Z,12.17
2018-11-03T13:07:42.996Z,11.63
2018-11-03T13:10:11.693Z,13.53
2018-11-03T13:12:40.444Z,12.97
2018-11-03T13:15:09.785Z,13.03
2018-11-03T13:17:38.048Z,13.47
2018-11-03T13:20:08.553Z,11.37
2018-11-03T13:22:36.837Z,12.40
2018-11-03T13:25:06.826Z,13.40
2018-11-03T13:27:36.252Z,12.37
2018-11-03T13:30:05.108Z,13.23
2018-11-03T13:32:33.248Z,12.67
2018-11-03T13:35:01.602Z,13.50
2018-11-03T13:37:29.802Z,12.10
2018-11-03T13:39:58.265Z,13.07
2018-11-03T13:42:26.425Z,11.77
2018-11-03T13:44:54.596Z,13.17
2018-11-03T13:47:23.010Z,12.67
2018-11-03T13:49:51.238Z,11.50
2018-11-03T13:52:19.649Z,12.40
2018-11-03T13:54:47.824Z,12.00
2018-11-03T13:57:16.012Z,11.73
2018-11-03T13:59:44.504Z,11.67
2018-11-03T14:02:12.756Z,11.90
2018-11-03T14:04:41.077Z,10.77
2018-11-03T14:07:09.168Z,11.27
2018-11-03T14:09:37.508Z,11.90
2018-11-03T14:12:06.209Z,10.70
2018-11-03T14:14:34.312Z,10.30
2018-11-03T14:17:02.700Z,11.50
2018-11-03T14:19:30.783Z,11.60
2018-11-03T14:21:58.951Z,11.33
2018-11-03T14:24:27.110Z,11.97
2018-11-03T14:26:55.502Z,10.93
2018-11-03T14:29:23.991Z,10.50
2018-11-03T14:31:52.269Z,12.03
2018-11-03T14:34:21.051Z,10.70
2018-11-03T14:36:49.136Z,11.40
2018-11-03T14:39:17.333Z,12.23
2018-11-03T14:41:45.489Z,11.73
2018-11-03T14:44:13.904Z,11.47
2018-11-03T14:46:42.139Z,10.90
2018-11-03T14:49:10.454Z,11.37
2018-11-03T14:51:38.916Z,10.40
2018-11-03T14:54:07.048Z,9.90
2018-11-03T14:56:35.360Z,9.83
2018-11-03T14:59:03.492Z,11.13
2018-11-03T15:01:31.661Z,11.00
2018-11-03T15:03:59.899Z,12.07
2018-11-03T15:06:28.957Z,9.73
2018-11-03T15:08:57.235Z,9.80
2018-11-03T15:11:25.504Z,9.70
2018-11-03T15:13:54.030Z,9.60
2018-11-03T15:16:22.591Z,10.73
2018-11-03T15:18:50.796Z,9.83
2018-11-03T15:21:19.127Z,10.23
2018-11-03T15:23:47.331Z,9.43
2018-11-03T15:26:15.761Z,10.93
2018-11-03T15:28:44.008Z,11.13
2018-11-03T15:31:12.236Z,11.70
2018-11-03T15:33:40.474Z,10.67
2018-11-03T15:36:08.677Z,11.43
2018-11-03T15:38:37.873Z,12.73
2018-11-03T15:41:06.341Z,12.13
2018-11-03T15:43:34.488Z,10.40
2018-11-03T15:46:02.616Z,10.93
2018-11-03T15:48:30.952Z,11.03
2018-11-03T15:50:59.326Z,10.73
2018-11-03T15:53:27.880Z,11.37
2018-11-03T15:55:56.163Z,9.70
2018-11-03T15:58:24.357Z,12.03
2018-11-03T16:00:52.770Z,11.23
2018-11-03T16:03:20.994Z,11.13
2018-11-03T16:05:49.254Z,12.10
2018-11-03T16:08:17.505Z,10.67
2018-11-03T16:10:45.647Z,12.87
2018-11-03T16:13:13.861Z,11.67
2018-11-03T16:15:42.497Z,11.90
2018-11-03T16:18:10.729Z,11.30
2018-11-03T16:20:38.925Z,11.00
2018-11-03T16:23:07.164Z,12.97
2018-11-03T16:25:35.352Z,11.60
2018-11-03T16:28:03.648Z,10.80
2018-11-03T16:30:32.078Z,10.53
2018-11-03T16:33:00.414Z,11.23
2018-11-03T16:35:28.958Z,10.10
2018-11-03T16:37:57.234Z,10.47
2018-11-03T16:40:25.548Z,10.70
2018-11-03T16:42:53.818Z,11.57
2018-11-03T16:45:22.262Z,11.40
2018-11-03T16:47:50.625Z,10.93
2018-11-03T16:50:18.788Z,12.07
2018-11-03T16:52:47.077Z,12.10
2018-11-03T16:55:15.338Z,12.63
2018-11-03T16:57:43.488Z,12.00
2018-11-03T17:00:13.230Z,12.47
2018-11-03T17:02:41.834Z,12.93
2018-11-03T17:05:11.413Z,12.83
2018-11-03T17:07:39.726Z,13.00
2018-11-03T17:10:11.281Z,13.07
2018-11-03T17:12:40.691Z,12.40
2018-11-03T17:15:08.828Z,14.10
2018-11-03T17:17:37.501Z,13.70
2018-11-03T17:20:06.237Z,13.08
2018-11-03T17:22:34.416Z,12.00
2018-11-03T17:25:02.714Z,14.00
2018-11-03T17:27:30.965Z,12.85
2018-11-03T17:29:59.385Z,13.03
2018-11-03T17:32:28.444Z,12.67
2018-11-03T17:34:56.696Z,13.53
2018-11-03T17:37:24.848Z,22.95
2018-11-03T17:39:53.035Z,13.30
2018-11-03T17:42:21.405Z,13.32
2018-11-03T17:44:49.654Z,13.65
2018-11-03T17:47:18.049Z,13.10
2018-11-03T17:49:46.351Z,14.00
2018-11-03T17:52:14.517Z,13.40
2018-11-03T17:54:42.944Z,13.78
2018-11-03T17:57:11.240Z,13.47
2018-11-03T17:59:39.528Z,13.07
2018-11-03T18:02:07.851Z,15.07
2018-11-03T18:04:36.050Z,13.15
2018-11-03T18:07:04.496Z,16.90
2018-11-03T18:09:32.879Z,14.40
2018-11-03T18:12:01.239Z,13.80
2018-11-03T18:14:29.611Z,13.10
2018-11-03T18:16:57.840Z,12.70
2018-11-03T18:19:26.079Z,14.68
2018-11-03T18:21:54.378Z,13.97
2018-11-03T18:24:22.717Z,13.45
2018-11-03T18:26:50.955Z,14.10
2018-11-03T18:29:19.196Z,13.23
2018-11-03T18:31:47.471Z,14.85
2018-11-03T18:34:15.723Z,13.48
2018-11-03T18:36:44.005Z,14.73
2018-11-03T18:39:12.323Z,14.83
2018-11-03T18:41:40.714Z,14.83
2018-11-03T18:44:09.146Z,15.50
2018-11-03T18:46:37.533Z,14.57
2018-11-03T18:49:06.288Z,13.27
2018-11-03T18:51:34.569Z,14.60
2018-11-03T18:54:02.854Z,14.60
2018-11-03T18:56:31.216Z,14.30
2018-11-03T18:58:59.364Z,14.03
2018-11-03T19:01:27.552Z,14.23
2018-11-03T19:03:55.819Z,14.67
2018-11-03T19:06:24.069Z,15.80
2018-11-03T19:08:52.342Z,13.62
2018-11-03T19:11:20.652Z,14.70
2018-11-03T19:13:48.965Z,15.88
2018-11-03T19:16:17.301Z,15.27
2018-11-03T19:18:45.653Z,15.10
2018-11-03T19:21:13.925Z,14.83
2018-11-03T19:23:42.436Z,13.80
2018-11-03T19:26:10.854Z,15.57
2018-11-03T19:28:39.091Z,14.90
2018-11-03T19:31:07.442Z,14.68
2018-11-03T19:33:35.687Z,15.17
2018-11-03T19:36:04.281Z,14.60
2018-11-03T19:38:32.684Z,14.33
2018-11-03T19:41:00.888Z,16.13
2018-11-03T19:43:29.086Z,15.07
2018-11-03T19:45:57.289Z,15.03
2018-11-03T19:48:25.666Z,14.03
2018-11-03T19:50:53.979Z,15.10
2018-11-03T19:53:22.300Z,13.93
2018-11-03T19:55:50.487Z,13.50
2018-11-03T19:58:18.641Z,16.60
2018-11-03T20:00:46.931Z,15.67
2018-11-03T20:03:15.185Z,14.50
2018-11-03T20:05:43.312Z,16.00
2018-11-03T20:08:11.555Z,14.00
2018-11-03T20:10:39.892Z,16.20
2018-11-03T20:13:08.069Z,15.27
2018-11-03T20:15:36.389Z,15.47
2018-11-03T20:18:04.877Z,14.50
2018-11-03T20:20:32.963Z,14.63
2018-11-03T20:23:01.231Z,14.57
2018-11-03T20:25:29.458Z,14.40
2018-11-03T20:27:57.863Z,13.70
2018-11-03T20:30:26.262Z,13.93
2018-11-03T20:32:54.471Z,13.43
2018-11-03T20:35:22.605Z,16.07
2018-11-03T20:37:50.908Z,14.80
2018-11-03T20:40:19.208Z,14.10
2018-11-03T20:42:47.462Z,15.37
2018-11-03T20:45:15.883Z,15.00
2018-11-03T20:47:44.251Z,14.17
2018-11-03T20:50:14.275Z,14.13
2018-11-03T20:52:42.616Z,13.97
2018-11-03T20:55:11.565Z,14.43
2018-11-03T20:57:40.860Z,15.00
2018-11-03T21:00:12.419Z,14.53
2018-11-03T21:02:40.587Z,14.37
2018-11-03T21:05:10.039Z,14.33
2018-11-03T21:07:38.942Z,12.80
2018-11-03T21:10:07.367Z,14.57
2018-11-03T21:12:35.652Z,15.47
2018-11-03T21:15:04.008Z,15.00
2018-11-03T21:17:32.280Z,15.00
2018-11-03T21:20:00.755Z,14.30
2018-11-03T21:22:29.011Z,15.07
2018-11-03T21:24:57.210Z,15.93
2018-11-03T21:27:32.371Z,14.73
2018-11-03T21:30:00.962Z,13.93
2018-11-03T21:32:29.271Z,14.43
2018-11-03T21:34:57.529Z,14.27
2018-11-03T21:37:25.777Z,14.50
2018-11-03T21:39:54.114Z,14.93
2018-11-03T21:42:22.333Z,14.23
2018-11-03T21:44:50.798Z,14.20
2018-11-03T21:47:19.037Z,14.60
2018-11-03T21:49:47.293Z,14.03
2018-11-03T21:52:15.503Z,14.00
2018-11-03T21:54:43.647Z,13.50
2018-11-03T21:57:12.693Z,14.20
2018-11-03T21:59:40.912Z,14.33
2018-11-03T22:02:09.041Z,14.43
2018-11-03T22:04:37.190Z,14.00
2018-11-03T22:07:05.607Z,14.93
2018-11-03T22:09:33.857Z,13.37
2018-11-03T22:12:02.150Z,15.37
2018-11-03T22:14:30.310Z,14.33
2018-11-03T22:16:58.505Z,14.47
2018-11-03T22:19:26.742Z,14.27
2018-11-03T22:21:55.024Z,14.20
2018-11-03T22:24:23.073Z,14.33
2018-11-03T22:26:51.220Z,14.40
2018-11-03T22:29:19.456Z,14.17
2018-11-03T22:31:47.618Z,14.77
2018-11-03T22:34:15.760Z,14.03
2018-11-03T22:36:43.930Z,15.97
2018-11-03T22:39:12.167Z,16.40
2018-11-03T22:41:40.326Z,14.43
2018-11-03T22:44:08.889Z,13.97
2018-11-03T22:46:37.062Z,12.87
2018-11-03T22:49:05.373Z,15.43
2018-11-03T22:51:33.649Z,14.93
2018-11-03T22:54:01.762Z,15.10
2018-11-03T22:56:29.859Z,14.77
2018-11-03T22:58:58.202Z,15.30
2018-11-03T23:01:26.476Z,15.57
2018-11-03T23:03:54.651Z,14.03
2018-11-03T23:06:22.774Z,15.13
2018-11-03T23:08:50.892Z,15.10
2018-11-03T23:11:19.030Z,14.33
2018-11-03T23:13:47.235Z,15.40
2018-11-03T23:16:21.985Z,14.57
2018-11-03T23:18:50.193Z,15.30
2018-11-03T23:21:18.315Z,15.17
2018-11-03T23:23:46.545Z,16.00
2018-11-03T23:26:14.658Z,16.03
2018-11-03T23:28:42.753Z,15.67
2018-11-03T23:31:10.978Z,15.73
2018-11-03T23:33:39.070Z,16.35
2018-11-03T23:36:07.185Z,16.10
2018-11-03T23:38:35.272Z,16.17
2018-11-03T23:41:03.408Z,15.90
2018-11-03T23:43:31.477Z,15.30
2018-11-03T23:45:59.691Z,17.80
2018-11-03T23:48:27.819Z,16.60
2018-11-03T23:50:55.877Z,16.10
2018-11-03T23:53:24.208Z,15.58
2018-11-03T23:55:52.215Z,16.83
2018-11-03T23:58:20.352Z,16.25
